createdAt,value
2019-01-11T00:04:11.285Z,16.77
2019-01-11T00:09:19.066Z,17.60
2019-01-11T00:14:25.227Z,16.60
2019-01-11T00:19:31.339Z,15.20
2019-01-11T00:24:37.585Z,15.10
2019-01-11T00:29:43.746Z,12.97
2019-01-11T00:34:49.987Z,12.23
2019-01-11T00:39:56.219Z,12.10
2019-01-11T00:45:02.296Z,9.53
2019-01-11T00:50:08.697Z,9.27
2019-01-11T00:55:14.858Z,9.73
2019-01-11T01:00:21.950Z,9.17
2019-01-11T01:05:28.040Z,10.33
2019-01-11T01:10:34.217Z,10.20
2019-01-11T01:15:40.376Z,9.63
2019-01-11T01:20:46.473Z,9.60
2019-01-11T01:25:52.693Z,9.20
2019-01-11T01:30:58.818Z,9.17
2019-01-11T01:36:05.002Z,9.73
2019-01-11T01:41:11.268Z,9.33
2019-01-11T01:46:17.453Z,10.30
2019-01-11T01:51:23.678Z,10.97
2019-01-11T01:56:29.997Z,10.17
2019-01-11T02:01:37.244Z,11.37
2019-01-11T02:06:43.422Z,12.77
2019-01-11T02:11:49.513Z,14.87
2019-01-11T02:16:55.621Z,15.20
2019-01-11T02:22:01.825Z,16.47
2019-01-11T02:27:08.181Z,21.30
2019-01-11T02:32:14.308Z,17.57
2019-01-11T02:37:20.413Z,19.27
2019-01-11T02:42:26.557Z,20.50
2019-01-11T02:47:32.704Z,18.90
2019-01-11T02:52:38.808Z,20.47
2019-01-11T02:57:44.893Z,20.07
2019-01-11T03:02:50.988Z,17.80
2019-01-11T03:07:57.150Z,20.43
2019-01-11T03:13:03.318Z,19.70
2019-01-11T03:18:09.475Z,20.13
2019-01-11T03:23:15.546Z,20.77
2019-01-11T03:28:21.726Z,23.10
2019-01-11T03:33:27.907Z,22.87
2019-01-11T03:38:34.072Z,29.47
2019-01-11T03:43:40.329Z,23.40
2019-01-11T03:48:46.497Z,25.77
2019-01-11T03:53:52.620Z,29.07
2019-01-11T03:58:58.718Z,26.17
2019-01-11T04:04:05.018Z,25.50
2019-01-11T04:09:12.927Z,21.43
2019-01-11T04:14:19.172Z,24.90
2019-01-11T04:19:25.262Z,22.70
2019-01-11T04:24:34.055Z,22.83
2019-01-11T04:29:40.227Z,21.67
2019-01-11T04:34:47.609Z,19.57
2019-01-11T04:39:53.731Z,18.87
2019-01-11T04:44:59.854Z,15.83
2019-01-11T04:50:09.444Z,16.17
2019-01-11T04:55:14.037Z,11.77
2019-01-11T05:00:22.583Z,8.80
2019-01-11T05:05:29.012Z,11.53
2019-01-11T05:10:35.074Z,10.97
2019-01-11T05:15:42.140Z,12.33
2019-01-11T05:20:48.463Z,10.57
2019-01-11T05:25:54.612Z,9.23
2019-01-11T05:31:00.786Z,10.27
2019-01-11T05:36:07.382Z,11.83
2019-01-11T05:41:14.859Z,9.07
2019-01-11T05:46:21.024Z,9.93
2019-01-11T05:51:27.130Z,9.17
2019-01-11T05:56:33.382Z,11.70
2019-01-11T06:01:39.478Z,10.00
2019-01-11T06:07:07.543Z,11.30
2019-01-11T06:12:13.650Z,16.47
2019-01-11T06:17:19.787Z,15.50
2019-01-11T06:22:27.148Z,21.40
2019-01-11T06:27:33.577Z,18.23
2019-01-11T06:32:39.825Z,20.47
2019-01-11T06:37:45.930Z,24.80
2019-01-11T06:43:03.523Z,29.97
2019-01-11T06:48:15.177Z,28.07
2019-01-11T06:53:21.322Z,27.77
2019-01-11T06:58:27.551Z,25.80
2019-01-11T07:03:36.014Z,31.43
2019-01-11T07:08:45.043Z,31.60
2019-01-11T07:13:54.410Z,39.30
2019-01-11T07:19:00.709Z,34.67
2019-01-11T07:24:06.983Z,31.20
2019-01-11T07:29:12.992Z,34.17
2019-01-11T07:34:19.478Z,31.70
2019-01-11T07:39:30.300Z,37.50
2019-01-11T07:44:36.562Z,36.57
2019-01-11T07:49:42.610Z,32.17
2019-01-11T07:54:48.703Z,32.93
2019-01-11T07:59:55.619Z,35.17
2019-01-11T08:05:02.992Z,36.10
2019-01-11T08:10:09.306Z,42.03
2019-01-11T08:15:16.095Z,47.17
2019-01-11T08:20:22.280Z,39.30
2019-01-11T08:25:28.463Z,30.77
2019-01-11T08:30:34.666Z,30.97
2019-01-11T08:35:40.792Z,36.80
2019-01-11T08:40:46.876Z,30.97
2019-01-11T08:45:53.070Z,28.93
2019-01-11T08:51:02.647Z,23.83
2019-01-11T08:56:08.548Z,24.70
2019-01-11T09:01:14.838Z,22.17
2019-01-11T09:06:20.950Z,23.27
2019-01-11T09:11:27.162Z,22.47
2019-01-11T09:16:33.374Z,21.13
2019-01-11T09:21:41.790Z,22.73
2019-01-11T09:26:47.387Z,17.80
2019-01-11T09:31:53.461Z,24.10
2019-01-11T09:36:59.619Z,25.87
2019-01-11T09:42:06.326Z,23.00
2019-01-11T09:47:12.478Z,19.40
2019-01-11T09:52:20.541Z,18.33
2019-01-11T09:57:26.699Z,17.97
2019-01-11T10:02:40.912Z,21.93
2019-01-11T10:07:47.177Z,18.50
2019-01-11T10:12:53.293Z,13.80
2019-01-11T10:17:59.402Z,10.00
2019-01-11T10:23:05.550Z,13.60
2019-01-11T10:28:13.209Z,6.40
2019-01-11T10:33:19.566Z,5.30
2019-01-11T10:38:25.666Z,6.70
2019-01-11T10:43:32.105Z,10.53
2019-01-11T10:48:38.364Z,6.63
2019-01-11T10:53:45.554Z,10.40
2019-01-11T10:58:51.691Z,13.27
2019-01-11T11:03:57.887Z,10.97
2019-01-11T11:09:08.829Z,12.90
2019-01-11T11:14:14.968Z,14.47
2019-01-11T11:19:21.094Z,16.70
2019-01-11T11:24:27.220Z,16.17
2019-01-11T11:29:33.406Z,18.37
2019-01-11T11:34:42.663Z,15.90
2019-01-11T11:39:48.847Z,18.33
2019-01-11T11:44:55.056Z,21.37
2019-01-11T11:50:01.194Z,12.10
2019-01-11T11:55:07.624Z,12.37
2019-01-11T12:00:16.828Z,10.07
2019-01-11T12:05:22.946Z,11.07
2019-01-11T12:10:29.037Z,15.57
2019-01-11T12:15:35.255Z,15.17
2019-01-11T12:20:41.311Z,15.00
2019-01-11T12:25:47.467Z,11.40
2019-01-11T12:30:53.591Z,11.13
2019-01-11T12:35:59.713Z,15.07
2019-01-11T12:41:05.863Z,11.07
2019-01-11T12:46:11.955Z,9.47
2019-01-11T12:51:18.862Z,11.23
2019-01-11T12:56:26.034Z,14.73
2019-01-11T13:01:32.151Z,15.07
2019-01-11T13:06:38.262Z,16.83
2019-01-11T13:11:44.407Z,13.70
2019-01-11T13:16:50.613Z,20.13
2019-01-11T13:22:00.516Z,15.73
2019-01-11T13:27:04.725Z,15.00
2019-01-11T13:32:10.850Z,18.63
2019-01-11T13:37:17.173Z,21.57
2019-01-11T13:42:23.246Z,13.50
2019-01-11T13:47:29.436Z,18.53
2019-01-11T13:52:35.642Z,17.33
2019-01-11T13:57:41.858Z,14.13
2019-01-11T14:02:47.966Z,17.47
2019-01-11T14:07:54.102Z,20.30
2019-01-11T14:12:59.683Z,13.67
2019-01-11T14:18:06.611Z,15.80
2019-01-11T14:23:12.303Z,15.20
2019-01-11T14:28:17.703Z,17.27
2019-01-11T14:33:23.018Z,10.57
2019-01-11T14:38:28.374Z,13.70
2019-01-11T14:43:33.863Z,16.50
2019-01-11T14:48:39.255Z,17.00
2019-01-11T14:53:44.729Z,15.83
2019-01-11T14:58:50.039Z,15.83
2019-01-11T15:03:55.380Z,16.37
2019-01-11T15:09:00.690Z,9.83
2019-01-11T15:14:06.110Z,11.10
2019-01-11T15:19:14.099Z,11.27
2019-01-11T15:24:18.486Z,14.87
2019-01-11T15:29:23.803Z,20.03
2019-01-11T15:34:29.124Z,20.77
2019-01-11T15:39:34.426Z,17.73
2019-01-11T15:44:40.329Z,16.70
2019-01-11T15:49:46.582Z,21.10
2019-01-11T15:54:52.841Z,22.27
2019-01-11T16:00:01.307Z,14.90
2019-01-11T16:05:08.993Z,19.30
2019-01-11T16:10:21.026Z,20.50
2019-01-11T16:15:41.550Z,22.17
2019-01-11T16:20:47.730Z,16.03
2019-01-11T16:25:54.000Z,15.80
2019-01-11T16:31:00.266Z,8.70
2019-01-11T16:36:06.666Z,15.30
2019-01-11T16:41:13.129Z,15.87
2019-01-11T16:46:19.354Z,18.53
2019-01-11T16:51:25.681Z,11.63
2019-01-11T16:56:32.068Z,11.27
2019-01-11T17:01:38.428Z,16.17
2019-01-11T17:06:44.730Z,17.40
2019-01-11T17:11:51.084Z,13.93
2019-01-11T17:16:57.326Z,18.03
2019-01-11T17:22:33.758Z,23.17
2019-01-11T17:27:40.693Z,22.73
2019-01-11T17:32:46.977Z,17.80
2019-01-11T17:37:53.415Z,21.03
2019-01-11T17:42:59.830Z,16.70
2019-01-11T17:48:06.141Z,16.33
2019-01-11T17:53:27.732Z,15.43
2019-01-11T17:58:31.716Z,9.77
2019-01-11T18:03:37.973Z,5.10
2019-01-11T18:08:45.578Z,7.43
2019-01-11T18:13:52.944Z,5.43
2019-01-11T18:18:59.363Z,7.63
2019-01-11T18:24:05.823Z,6.30
2019-01-11T18:29:12.238Z,6.60
2019-01-11T18:34:18.480Z,6.03
2019-01-11T18:39:24.804Z,12.57
2019-01-11T18:44:31.144Z,8.57
2019-01-11T18:49:37.694Z,8.80
2019-01-11T18:54:44.910Z,7.47
2019-01-11T18:59:51.257Z,9.37
2019-01-11T19:04:57.626Z,6.00
2019-01-11T19:10:04.781Z,4.43
2019-01-11T19:15:14.889Z,4.90
2019-01-11T19:20:23.824Z,4.83
2019-01-11T19:25:30.345Z,5.77
2019-01-11T19:30:36.723Z,6.03
2019-01-11T19:35:42.876Z,7.87
2019-01-11T19:40:50.874Z,5.10
2019-01-11T19:45:57.111Z,7.30
2019-01-11T19:51:03.344Z,6.17
2019-01-11T19:56:09.570Z,6.37
2019-01-11T20:01:15.809Z,10.63
2019-01-11T20:06:22.173Z,10.37
2019-01-11T20:11:28.683Z,13.10
2019-01-11T20:16:35.137Z,7.57
2019-01-11T20:21:41.322Z,8.90
2019-01-11T20:26:48.128Z,8.80
2019-01-11T20:31:54.311Z,6.97
2019-01-11T20:37:12.650Z,3.97
2019-01-11T20:42:18.859Z,9.20
2019-01-11T20:47:25.149Z,4.57
2019-01-11T20:52:31.337Z,4.43
2019-01-11T20:57:37.401Z,5.10
2019-01-11T21:02:43.718Z,7.13
2019-01-11T21:07:50.486Z,3.57
2019-01-11T21:12:56.689Z,4.63
2019-01-11T21:18:03.065Z,5.63
2019-01-11T21:23:09.605Z,7.77
2019-01-11T21:28:15.903Z,8.83
2019-01-11T21:33:22.038Z,5.87
2019-01-11T21:38:28.350Z,5.77
2019-01-11T21:43:34.773Z,4.40
2019-01-11T21:48:40.951Z,5.60
2019-01-11T21:53:47.168Z,3.60
2019-01-11T21:58:53.471Z,4.97
2019-01-11T22:03:59.751Z,6.03
2019-01-11T22:09:08.768Z,3.53
2019-01-11T22:14:15.113Z,6.27
2019-01-11T22:19:21.563Z,4.77
2019-01-11T22:24:27.859Z,5.23
2019-01-11T22:29:34.498Z,5.90
2019-01-11T22:34:40.830Z,4.40
2019-01-11T22:39:49.406Z,7.30
2019-01-11T22:44:55.935Z,6.57
2019-01-11T22:50:02.025Z,6.57
2019-01-11T22:55:10.013Z,10.57
2019-01-11T23:01:04.035Z,5.67
2019-01-11T23:06:53.400Z,4.67
2019-01-11T23:12:32.996Z,8.97
2019-01-11T23:18:07.443Z,5.90
2019-01-11T23:23:13.738Z,10.23
2019-01-11T23:28:19.884Z,7.63
2019-01-11T23:33:26.162Z,4.40
2019-01-11T23:38:32.411Z,6.73
2019-01-11T23:43:38.784Z,9.63
2019-01-11T23:48:45.260Z,16.83
2019-01-11T23:53:51.547Z,9.90
2019-01-11T23:58:57.778Z,8.67
